Time;durP1;ratioP1;P1;durP2;ratioP2;P2;SDS_P1;SDS_P2;PMS_P1;PMS_P2;Temp;Humidity;BMP_temperature;BMP_pressure;BME280_temperature;BME280_humidity;BME280_pressure;Samples;Min_cycle;Max_cycle;Signal;HPM_P1;HPM_P2
2022/03/19 00:00:34;;;;;;;5.00;2.87;;;9.80;99.90;;;;;;5088575;28;20207;-80
2022/03/19 00:03:01;;;;;;;5.13;3.10;;;9.80;99.90;;;;;;5089974;28;20264;-80
2022/03/19 00:05:29;;;;;;;6.20;3.10;;;9.70;99.90;;;;;;5089991;28;20580;-80
2022/03/19 00:07:56;;;;;;;6.70;2.57;;;9.70;99.90;;;;;;5090013;28;20214;-80
2022/03/19 00:10:24;;;;;;;5.47;2.73;;;9.80;99.90;;;;;;5090176;28;20198;-80
2022/03/19 00:12:51;;;;;;;7.37;2.60;;;9.70;99.90;;;;;;5089806;28;20202;-80
2022/03/19 00:15:18;;;;;;;6.27;2.87;;;9.70;99.90;;;;;;5089704;28;20237;-80
2022/03/19 00:17:44;;;;;;;5.30;2.73;;;9.70;99.90;;;;;;5089930;28;20235;-80
2022/03/19 00:20:12;;;;;;;7.57;2.63;;;9.60;99.90;;;;;;5089946;28;20700;-80
2022/03/19 00:22:40;;;;;;;6.97;2.70;;;9.60;99.90;;;;;;5089983;28;20574;-80
2022/03/19 00:25:09;;;;;;;8.93;2.87;;;9.50;99.90;;;;;;5090577;28;20238;-80
2022/03/19 00:27:36;;;;;;;5.90;2.63;;;9.40;99.90;;;;;;5090937;28;20218;-80
2022/03/19 00:30:02;;;;;;;6.93;2.67;;;9.40;99.90;;;;;;5091668;28;20586;-80
2022/03/19 00:32:29;;;;;;;6.57;2.93;;;9.50;99.90;;;;;;5091688;28;20649;-80
2022/03/19 00:34:56;;;;;;;7.37;2.70;;;9.40;99.90;;;;;;5090511;28;20684;-77
2022/03/19 00:37:23;;;;;;;3.97;2.60;;;9.40;99.90;;;;;;5091421;28;20661;-79
2022/03/19 00:39:51;;;;;;;8.10;2.70;;;9.30;99.90;;;;;;5078147;28;20215;-80
2022/03/19 00:42:18;;;;;;;9.13;3.00;;;9.20;99.90;;;;;;5070056;28;20199;-77
2022/03/19 00:44:45;;;;;;;5.33;2.53;;;9.20;99.90;;;;;;5077767;28;20789;-77
2022/03/19 00:47:11;;;;;;;5.17;2.63;;;9.20;99.90;;;;;;5091599;28;20211;-77
2022/03/19 00:49:38;;;;;;;4.60;2.60;;;9.20;99.90;;;;;;5091590;28;20232;-77
2022/03/19 00:52:05;;;;;;;5.40;2.33;;;9.20;99.90;;;;;;5089208;28;20260;-79
2022/03/19 00:54:31;;;;;;;7.47;3.07;;;9.10;99.90;;;;;;5071162;28;20215;-78
2022/03/19 00:56:59;;;;;;;4.83;2.23;;;9.10;99.90;;;;;;5070917;28;20231;-78
2022/03/19 00:59:26;;;;;;;10.77;2.40;;;8.90;99.90;;;;;;5071051;28;20298;-77
2022/03/19 01:01:53;;;;;;;3.90;1.73;;;8.90;99.90;;;;;;5070806;28;20208;-79
2022/03/19 01:04:20;;;;;;;4.17;2.23;;;8.80;99.90;;;;;;5070788;28;20200;-79
2022/03/19 01:06:47;;;;;;;5.53;2.57;;;8.80;99.90;;;;;;5071034;28;20342;-79
2022/03/19 01:09:13;;;;;;;7.67;2.60;;;8.80;99.90;;;;;;5071264;28;20218;-80
2022/03/19 01:11:40;;;;;;;5.47;2.40;;;8.80;99.90;;;;;;5069135;28;20222;-80
2022/03/19 01:14:08;;;;;;;3.83;1.80;;;8.70;99.90;;;;;;5070809;28;20425;-84
2022/03/19 01:16:35;;;;;;;6.87;2.60;;;8.80;99.90;;;;;;5071276;28;20237;-83
2022/03/19 01:19:01;;;;;;;6.90;2.57;;;8.80;99.90;;;;;;5083612;28;20620;-83
2022/03/19 01:21:30;;;;;;;6.30;2.17;;;8.70;99.90;;;;;;5074772;28;20269;-82
2022/03/19 01:23:56;;;;;;;5.90;2.13;;;8.80;99.90;;;;;;5070672;28;20247;-86
2022/03/19 01:26:24;;;;;;;5.40;2.57;;;8.70;99.90;;;;;;5071985;28;20277;-86
2022/03/19 01:28:50;;;;;;;5.13;2.27;;;8.80;99.90;;;;;;5071749;28;20688;-86
2022/03/19 01:31:21;;;;;;;5.30;2.20;;;8.70;99.90;;;;;;5071782;28;20232;-86
2022/03/19 01:33:48;;;;;;;6.03;2.03;;;8.70;99.90;;;;;;5071321;28;20279;-85
2022/03/19 01:36:14;;;;;;;4.13;2.50;;;8.70;99.90;;;;;;5089205;28;20841;-83
2022/03/19 01:38:41;;;;;;;5.07;2.10;;;8.70;99.90;;;;;;5090694;28;20203;-82
2022/03/19 01:41:07;;;;;;;5.90;2.40;;;8.70;99.90;;;;;;5083039;28;20212;-83
2022/03/19 01:43:37;;;;;;;5.07;1.83;;;8.70;99.90;;;;;;5070392;28;20215;-82
2022/03/19 01:46:07;;;;;;;6.20;2.03;;;8.70;99.90;;;;;;5070032;28;20207;-82
2022/03/19 01:48:35;;;;;;;3.97;2.50;;;8.60;99.90;;;;;;5070300;28;20893;-83
2022/03/19 01:51:02;;;;;;;5.73;2.40;;;8.60;99.90;;;;;;5070362;28;20333;-81
2022/03/19 01:53:29;;;;;;;5.10;2.13;;;8.60;99.90;;;;;;5086221;28;20202;-82
2022/03/19 01:55:56;;;;;;;4.93;2.53;;;8.60;99.90;;;;;;5090374;28;20227;-82
2022/03/19 01:58:24;;;;;;;4.20;2.30;;;8.50;99.90;;;;;;5090382;28;20237;-81
2022/03/19 02:00:51;;;;;;;9.93;3.10;;;8.50;99.90;;;;;;5072202;28;20670;-81
2022/03/19 02:03:18;;;;;;;4.30;2.27;;;8.50;99.90;;;;;;5090628;28;20199;-84
2022/03/19 02:05:48;;;;;;;5.13;2.37;;;8.50;99.90;;;;;;5090566;28;20211;-84
2022/03/19 02:08:14;;;;;;;6.73;2.70;;;8.50;99.90;;;;;;5081466;28;20662;-81
2022/03/19 02:10:41;;;;;;;4.33;2.57;;;8.50;99.90;;;;;;5069771;28;20705;-81
2022/03/19 02:13:08;;;;;;;5.10;2.80;;;8.40;99.90;;;;;;5069928;28;20237;-81
2022/03/19 02:15:35;;;;;;;5.50;2.77;;;8.40;99.90;;;;;;5084477;28;20688;-78
2022/03/19 02:18:02;;;;;;;4.03;2.67;;;8.40;99.90;;;;;;5091120;28;20547;-87
2022/03/19 02:20:34;;;;;;;6.63;3.20;;;8.30;99.90;;;;;;5092436;28;20207;-87
2022/03/19 02:25:48;;;;;;;7.37;3.77;;;8.30;99.90;;;;;;5092633;28;20295;-87
2022/03/19 02:28:15;;;;;;;6.50;3.20;;;8.30;99.90;;;;;;5092493;28;20676;-86
2022/03/19 02:30:44;;;;;;;7.50;3.50;;;8.30;99.90;;;;;;5092372;28;20203;-87
2022/03/19 02:33:11;;;;;;;6.47;3.67;;;8.30;99.90;;;;;;5092307;28;20223;-87
2022/03/19 02:35:37;;;;;;;8.17;2.97;;;8.20;99.90;;;;;;5092438;28;20211;-87
2022/03/19 02:38:05;;;;;;;8.37;3.87;;;8.20;99.90;;;;;;5092188;28;20267;-87
2022/03/19 02:40:32;;;;;;;5.57;3.70;;;8.10;99.90;;;;;;5092239;28;20203;-88
2022/03/19 02:42:59;;;;;;;7.67;4.00;;;8.10;99.90;;;;;;5090830;28;20718;-82
2022/03/19 02:45:26;;;;;;;7.13;3.97;;;8.10;99.90;;;;;;5091109;28;20605;-85
2022/03/19 02:47:59;;;;;;;8.43;3.97;;;8.00;99.90;;;;;;5090877;28;20271;-83
2022/03/19 02:50:27;;;;;;;7.77;4.07;;;8.00;99.90;;;;;;5091175;28;20191;-83
2022/03/19 02:52:54;;;;;;;7.47;4.00;;;8.00;99.90;;;;;;5090828;28;20238;-84
2022/03/19 02:55:22;;;;;;;8.67;4.13;;;7.90;99.90;;;;;;5091313;28;20207;-84
2022/03/19 02:57:49;;;;;;;7.83;3.40;;;7.90;99.90;;;;;;5090335;28;20287;-83
2022/03/19 03:00:16;;;;;;;8.47;3.87;;;7.80;99.90;;;;;;5090101;28;20210;-85
2022/03/19 03:02:43;;;;;;;7.90;3.73;;;7.80;99.90;;;;;;5090324;28;20211;-84
2022/03/19 03:05:12;;;;;;;8.97;3.80;;;7.70;99.90;;;;;;5076034;28;20728;-83
2022/03/19 03:07:39;;;;;;;8.97;4.00;;;7.70;99.90;;;;;;5070247;28;20298;-84
2022/03/19 03:10:07;;;;;;;9.10;4.17;;;7.70;99.90;;;;;;5070100;28;20261;-83
2022/03/19 03:12:35;;;;;;;7.93;4.10;;;7.70;99.90;;;;;;5090260;28;20272;-84
2022/03/19 03:15:02;;;;;;;6.53;4.00;;;7.70;99.90;;;;;;5090203;28;20276;-82
2022/03/19 03:17:29;;;;;;;5.67;3.93;;;7.60;99.90;;;;;;5090180;28;21022;-83
2022/03/19 03:19:56;;;;;;;8.87;3.97;;;7.60;99.90;;;;;;5090010;28;20199;-84
2022/03/19 03:22:22;;;;;;;9.60;4.03;;;7.50;99.90;;;;;;5083613;28;20203;-82
2022/03/19 03:24:49;;;;;;;7.60;3.17;;;7.50;99.90;;;;;;5089465;28;20243;-84
2022/03/19 03:27:16;;;;;;;7.17;3.60;;;7.50;99.90;;;;;;5080320;28;20273;-83
2022/03/19 03:29:44;;;;;;;6.63;4.03;;;7.50;99.90;;;;;;5069304;28;20653;-85
2022/03/19 03:32:10;;;;;;;6.77;3.50;;;7.40;99.90;;;;;;5069506;28;20227;-83
2022/03/19 03:34:38;;;;;;;6.50;3.40;;;7.30;99.90;;;;;;5068290;28;20207;-82
2022/03/19 03:37:04;;;;;;;6.60;3.43;;;7.30;99.90;;;;;;5068695;28;20239;-82
2022/03/19 03:39:31;;;;;;;6.87;3.10;;;7.30;99.90;;;;;;5078890;28;20211;-84
2022/03/19 03:41:58;;;;;;;6.43;3.23;;;7.20;99.90;;;;;;5088878;28;20240;-84
2022/03/19 03:44:25;;;;;;;7.50;3.10;;;7.20;99.90;;;;;;5089423;28;20256;-84
2022/03/19 03:46:53;;;;;;;9.17;3.77;;;7.20;99.90;;;;;;5089021;28;20255;-85
2022/03/19 03:49:19;;;;;;;9.73;3.83;;;7.10;99.90;;;;;;5088951;28;20268;-84
2022/03/19 03:51:46;;;;;;;7.70;3.30;;;7.10;99.90;;;;;;5088820;28;20195;-84
2022/03/19 03:54:13;;;;;;;5.93;3.40;;;7.00;99.90;;;;;;5068577;28;20199;-82
2022/03/19 03:56:40;;;;;;;7.27;4.07;;;7.10;99.90;;;;;;5067931;28;20694;-81
2022/03/19 03:59:06;;;;;;;5.90;3.17;;;7.00;99.90;;;;;;5068166;28;20203;-82
2022/03/19 04:01:33;;;;;;;6.93;3.40;;;7.00;99.90;;;;;;5083940;28;20210;-83
2022/03/19 04:04:01;;;;;;;7.17;3.80;;;7.00;99.90;;;;;;5088411;28;20248;-79
2022/03/19 04:06:28;;;;;;;7.47;3.90;;;7.10;99.90;;;;;;5086751;28;20210;-79
2022/03/19 04:08:54;;;;;;;7.60;3.87;;;7.00;99.90;;;;;;5067956;28;20207;-78
2022/03/19 04:11:21;;;;;;;5.67;3.60;;;7.00;99.90;;;;;;5067899;28;20207;-79
2022/03/19 04:13:47;;;;;;;5.40;3.73;;;7.00;99.90;;;;;;5068092;28;20211;-78
2022/03/19 04:16:14;;;;;;;6.57;4.23;;;7.00;99.90;;;;;;5068158;28;20219;-78
2022/03/19 04:18:41;;;;;;;6.40;3.53;;;7.00;99.90;;;;;;5067888;28;20674;-79
2022/03/19 04:21:09;;;;;;;6.50;3.67;;;7.00;99.90;;;;;;5081656;28;20654;-78
2022/03/19 04:23:36;;;;;;;7.80;3.83;;;6.90;99.90;;;;;;5077450;28;20608;-78
2022/03/19 04:26:06;;;;;;;5.70;3.47;;;6.70;99.90;;;;;;5067867;28;20214;-78
2022/03/19 04:28:33;;;;;;;10.87;3.93;;;6.70;99.90;;;;;;5067925;28;20205;-78
2022/03/19 04:30:59;;;;;;;7.40;3.50;;;6.70;99.90;;;;;;5084447;28;20260;-79
2022/03/19 04:33:26;;;;;;;7.67;3.93;;;6.70;99.90;;;;;;5088100;28;20199;-79
2022/03/19 04:38:40;;;;;;;7.43;3.33;;;6.70;99.90;;;;;;5085530;28;20194;-79
2022/03/19 04:41:08;;;;;;;6.07;3.63;;;6.60;99.90;;;;;;5067737;28;20208;-79
2022/03/19 04:43:34;;;;;;;6.63;3.30;;;6.50;99.90;;;;;;5067760;28;20199;-79
2022/03/19 04:46:01;;;;;;;7.00;3.90;;;6.60;99.90;;;;;;5069568;28;20207;-79
2022/03/19 04:48:31;;;;;;;5.53;3.40;;;6.50;99.90;;;;;;5081457;28;20202;-79
2022/03/19 04:50:58;;;;;;;8.07;3.73;;;6.40;99.90;;;;;;5091588;28;20459;-79
2022/03/19 04:53:25;;;;;;;7.87;3.83;;;6.40;99.90;;;;;;5078501;28;20203;-79
2022/03/19 04:55:54;;;;;;;6.83;3.73;;;6.40;99.90;;;;;;5071201;28;20234;-79
2022/03/19 04:58:20;;;;;;;8.57;3.73;;;6.40;99.90;;;;;;5071224;28;20669;-79
2022/03/19 05:00:47;;;;;;;5.53;3.23;;;6.40;99.90;;;;;;5071150;28;20241;-79
2022/03/19 05:03:14;;;;;;;5.17;3.23;;;6.40;99.90;;;;;;5077304;28;20203;-79
2022/03/19 05:05:41;;;;;;;5.43;3.27;;;6.40;99.90;;;;;;5091728;28;20213;-79
2022/03/19 05:08:08;;;;;;;7.40;3.53;;;6.40;99.90;;;;;;5091329;28;20256;-79
2022/03/19 05:13:20;;;;;;;6.60;3.70;;;6.30;99.90;;;;;;5091071;28;20717;-81
2022/03/19 05:15:47;;;;;;;8.43;3.27;;;6.30;99.90;;;;;;5090616;28;20662;-80
2022/03/19 05:18:14;;;;;;;5.70;3.07;;;6.30;99.90;;;;;;5091400;28;20234;-81
2022/03/19 05:20:40;;;;;;;7.70;3.07;;;6.20;99.90;;;;;;5088211;28;20276;-84
2022/03/19 05:23:07;;;;;;;6.97;2.83;;;6.40;99.90;;;;;;5091511;28;20229;-81
2022/03/19 05:25:34;;;;;;;6.20;2.93;;;6.30;99.90;;;;;;5091316;28;20222;-82
2022/03/19 05:28:01;;;;;;;6.63;3.20;;;6.20;99.90;;;;;;5090653;28;20657;-76
2022/03/19 05:30:30;;;;;;;4.43;3.00;;;6.20;99.90;;;;;;5090786;28;20256;-76
2022/03/19 05:32:57;;;;;;;6.50;3.20;;;6.20;99.90;;;;;;5090628;28;20237;-75
2022/03/19 05:35:26;;;;;;;9.10;3.63;;;6.20;99.90;;;;;;5091102;28;20206;-76
2022/03/19 05:37:53;;;;;;;4.90;3.13;;;6.20;99.90;;;;;;5090915;28;20227;-83
2022/03/19 05:40:19;;;;;;;9.07;3.00;;;6.20;99.90;;;;;;5091244;28;20259;-83
2022/03/19 05:42:46;;;;;;;5.53;3.13;;;6.10;99.90;;;;;;5090875;28;20210;-82
2022/03/19 05:45:14;;;;;;;6.63;3.00;;;6.10;99.90;;;;;;5090576;28;20215;-82
2022/03/19 05:47:42;;;;;;;5.47;3.17;;;6.20;99.90;;;;;;5090616;28;20232;-82
2022/03/19 05:50:10;;;;;;;8.30;3.23;;;6.10;99.90;;;;;;5090959;28;20278;-81
2022/03/19 05:52:37;;;;;;;6.93;2.70;;;6.20;99.90;;;;;;5086957;28;20617;-81
2022/03/19 05:55:05;;;;;;;6.50;3.67;;;6.10;99.90;;;;;;5070293;28;20249;-80
2022/03/19 05:57:32;;;;;;;4.87;2.97;;;6.10;99.90;;;;;;5069266;28;20626;-83
2022/03/19 05:59:59;;;;;;;10.43;3.27;;;6.10;99.90;;;;;;5069960;28;20290;-82
2022/03/19 06:02:26;;;;;;;5.57;2.67;;;6.10;99.90;;;;;;5070654;28;20204;-84
2022/03/19 06:04:54;;;;;;;3.70;2.70;;;5.90;99.90;;;;;;5069803;28;20678;-78
2022/03/19 06:07:23;;;;;;;5.77;2.60;;;5.90;99.90;;;;;;5069602;28;20204;-79
2022/03/19 06:09:50;;;;;;;4.00;2.60;;;6.00;99.90;;;;;;5069627;28;20737;-78
2022/03/19 06:12:16;;;;;;;5.97;2.70;;;6.00;99.90;;;;;;5070296;28;20204;-81
2022/03/19 06:14:43;;;;;;;4.70;2.83;;;6.00;99.90;;;;;;5069787;28;20204;-79
2022/03/19 06:17:09;;;;;;;4.53;2.53;;;5.90;99.90;;;;;;5085494;28;20257;-79
2022/03/19 06:19:36;;;;;;;7.20;2.63;;;6.00;99.90;;;;;;5089947;28;20263;-79
2022/03/19 06:22:05;;;;;;;8.70;3.30;;;6.00;99.90;;;;;;5089852;28;20211;-79
2022/03/19 06:24:31;;;;;;;5.27;2.70;;;6.10;99.90;;;;;;5089540;28;20238;-79
2022/03/19 06:26:58;;;;;;;7.20;3.00;;;6.10;99.90;;;;;;5089639;28;20203;-79
2022/03/19 06:29:25;;;;;;;4.37;2.87;;;6.10;99.90;;;;;;5089658;28;20207;-79
2022/03/19 06:31:51;;;;;;;5.67;2.50;;;6.20;99.90;;;;;;5089913;28;20275;-79
2022/03/19 06:34:18;;;;;;;7.33;2.60;;;6.20;99.90;;;;;;5089804;28;20203;-78
2022/03/19 06:39:30;;;;;;;4.77;2.83;;;6.20;99.90;;;;;;5089434;28;20202;-79
2022/03/19 06:41:57;;;;;;;6.00;2.60;;;6.30;99.90;;;;;;5089963;28;20203;-87
2022/03/19 06:44:24;;;;;;;5.87;2.73;;;6.30;99.90;;;;;;5091491;28;20202;-88
2022/03/19 06:46:51;;;;;;;2.40;2.10;;;6.40;99.90;;;;;;5092271;28;20210;-88
2022/03/19 06:49:17;;;;;;;4.43;2.50;;;6.50;99.90;;;;;;5083971;28;20211;-85
2022/03/19 06:51:44;;;;;;;5.27;2.30;;;6.60;99.90;;;;;;5070027;28;20207;-87
2022/03/19 06:54:11;;;;;;;3.93;2.37;;;6.70;99.90;;;;;;5069724;28;20207;-85
2022/03/19 06:56:39;;;;;;;4.47;2.07;;;6.80;99.90;;;;;;5083226;28;20582;-86
2022/03/19 06:59:06;;;;;;;3.20;2.30;;;6.80;99.90;;;;;;5089886;28;20324;-87
2022/03/19 07:01:36;;;;;;;4.17;2.10;;;6.90;99.90;;;;;;5089768;28;20211;-81
2022/03/19 07:04:03;;;;;;;5.60;2.53;;;6.90;99.90;;;;;;5089028;28;20862;-82
2022/03/19 07:06:30;;;;;;;6.13;2.50;;;6.90;99.90;;;;;;5089232;28;20207;-81
2022/03/19 07:08:57;;;;;;;5.60;2.37;;;7.00;99.90;;;;;;5088962;28;20202;-81
2022/03/19 07:11:23;;;;;;;6.50;2.47;;;7.00;99.90;;;;;;5091180;28;20204;-86
2022/03/19 07:13:51;;;;;;;3.60;2.40;;;6.90;99.90;;;;;;5091090;28;20198;-86
2022/03/19 07:16:18;;;;;;;5.63;2.00;;;7.00;99.90;;;;;;5090909;28;20203;-89
2022/03/19 07:18:44;;;;;;;4.07;1.83;;;7.10;99.90;;;;;;5091009;28;20615;-85
2022/03/19 07:21:12;;;;;;;4.30;2.10;;;7.20;99.90;;;;;;5090939;28;20217;-86
2022/03/19 07:23:39;;;;;;;2.63;1.77;;;7.30;99.90;;;;;;5090093;28;20235;-84
2022/03/19 07:26:08;;;;;;;2.90;1.60;;;7.40;99.90;;;;;;5090236;28;20244;-85
2022/03/19 07:28:35;;;;;;;4.73;2.20;;;7.40;99.90;;;;;;5090002;28;20214;-85
2022/03/19 07:31:06;;;;;;;3.87;1.60;;;7.50;99.90;;;;;;5089720;28;20704;-85
2022/03/19 07:33:34;;;;;;;2.70;1.63;;;7.40;99.90;;;;;;5090229;28;20194;-85
2022/03/19 07:36:05;;;;;;;3.10;1.70;;;7.50;99.90;;;;;;5090003;28;20209;-85
2022/03/19 07:38:32;;;;;;;2.83;1.90;;;7.60;99.90;;;;;;5088387;28;20230;-80
2022/03/19 07:43:43;;;;;;;2.73;1.43;;;7.70;99.90;;;;;;5088493;28;20194;-82
2022/03/19 07:46:12;;;;;;;3.00;1.40;;;7.80;99.90;;;;;;5076405;28;20207;-82
2022/03/19 07:48:39;;;;;;;2.33;1.53;;;7.90;99.90;;;;;;5068142;28;20682;-81
2022/03/19 07:51:06;;;;;;;3.37;1.50;;;8.00;99.90;;;;;;5068647;28;20199;-81
2022/03/19 07:53:33;;;;;;;5.03;1.73;;;8.10;99.90;;;;;;5072608;28;20663;-82
2022/03/19 07:56:00;;;;;;;3.50;1.63;;;8.20;99.90;;;;;;5068065;28;20686;-77
2022/03/19 07:58:27;;;;;;;2.50;1.37;;;8.30;99.90;;;;;;5068029;28;20235;-78
2022/03/19 08:00:54;;;;;;;8.20;2.40;;;8.30;99.90;;;;;;5068017;28;20256;-77
2022/03/19 08:03:22;;;;;;;7.30;2.20;;;8.30;99.90;;;;;;5068332;28;20211;-77
2022/03/19 08:05:48;;;;;;;2.73;1.77;;;8.30;99.90;;;;;;5068173;28;20252;-76
2022/03/19 08:08:15;;;;;;;3.67;1.40;;;8.40;99.90;;;;;;5075449;28;20233;-77
2022/03/19 08:10:42;;;;;;;2.67;1.30;;;8.50;99.90;;;;;;5088413;28;20202;-76
2022/03/19 08:13:10;;;;;;;4.40;1.53;;;8.50;99.90;;;;;;5089127;28;20656;-85
2022/03/19 08:15:40;;;;;;;4.33;1.90;;;8.50;99.90;;;;;;5089178;28;20199;-84
2022/03/19 08:18:07;;;;;;;2.07;1.70;;;8.60;99.90;;;;;;5089452;28;20729;-84
2022/03/19 08:20:35;;;;;;;1.87;1.60;;;8.60;99.90;;;;;;5090676;28;20202;-85
2022/03/19 08:23:02;;;;;;;3.87;1.70;;;8.60;99.90;;;;;;5092596;28;20260;-82
2022/03/19 08:25:29;;;;;;;3.70;1.60;;;8.70;99.90;;;;;;5091720;28;20308;-82
2022/03/19 08:27:57;;;;;;;2.87;1.40;;;8.80;99.90;;;;;;5092220;28;20217;-82
2022/03/19 08:30:23;;;;;;;5.80;1.77;;;8.90;99.90;;;;;;5092035;28;20579;-82
2022/03/19 08:32:50;;;;;;;5.23;1.80;;;9.00;99.90;;;;;;5091858;28;20207;-82
2022/03/19 08:35:17;;;;;;;7.00;1.87;;;9.10;99.90;;;;;;5091878;28;20680;-82
2022/03/19 08:37:45;;;;;;;2.70;1.60;;;9.10;99.90;;;;;;5092054;28;20231;-81
2022/03/19 08:40:18;;;;;;;3.43;2.00;;;9.20;99.90;;;;;;5092022;28;20668;-82
2022/03/19 08:42:48;;;;;;;3.27;1.43;;;9.10;99.90;;;;;;5091747;28;20210;-82
2022/03/19 08:45:14;;;;;;;3.73;1.80;;;9.10;99.90;;;;;;5091821;28;20210;-82
2022/03/19 08:47:41;;;;;;;4.17;1.57;;;9.20;99.90;;;;;;5091987;28;20218;-82
2022/03/19 08:50:09;;;;;;;2.50;1.60;;;9.20;99.90;;;;;;5091875;28;20206;-82
2022/03/19 08:52:36;;;;;;;8.87;2.80;;;9.40;99.90;;;;;;5091366;28;20211;-81
2022/03/19 08:55:05;;;;;;;2.40;1.43;;;9.50;99.90;;;;;;5092567;28;20207;-88
2022/03/19 08:57:32;;;;;;;7.00;1.80;;;9.60;99.90;;;;;;5093754;28;20210;-87
2022/03/19 08:59:59;;;;;;;1.70;1.53;;;9.70;99.90;;;;;;5092351;28;20604;-86
2022/03/19 09:02:26;;;;;;;4.53;1.97;;;9.70;99.90;;;;;;5092134;28;20207;-85
2022/03/19 09:04:52;;;;;;;6.10;1.93;;;9.80;99.90;;;;;;5085103;28;20261;-86
2022/03/19 09:07:19;;;;;;;5.03;1.67;;;9.90;99.90;;;;;;5071965;28;20207;-86
2022/03/19 09:09:52;;;;;;;3.07;1.67;;;10.00;99.90;;;;;;5071765;28;20637;-85
2022/03/19 09:12:21;;;;;;;5.73;2.20;;;10.10;99.90;;;;;;5089637;28;20221;-85
2022/03/19 09:14:48;;;;;;;3.13;1.90;;;10.20;99.90;;;;;;5092023;28;20240;-85
2022/03/19 09:17:15;;;;;;;3.93;1.57;;;10.30;99.90;;;;;;5092212;28;20213;-85
2022/03/19 09:19:42;;;;;;;3.00;1.63;;;10.40;99.90;;;;;;5092393;28;20284;-85
2022/03/19 09:22:08;;;;;;;3.67;1.53;;;10.40;99.90;;;;;;5087908;28;20276;-86
2022/03/19 09:24:35;;;;;;;3.37;1.50;;;10.50;99.90;;;;;;5071559;28;20235;-84
2022/03/19 09:27:02;;;;;;;2.77;1.20;;;10.60;99.90;;;;;;5071966;28;20203;-85
2022/03/19 09:29:30;;;;;;;2.27;1.80;;;10.70;99.90;;;;;;5078827;28;20218;-85
2022/03/19 09:31:56;;;;;;;3.93;1.67;;;10.70;99.90;;;;;;5079923;28;20228;-84
2022/03/19 09:34:23;;;;;;;3.87;1.67;;;10.70;99.90;;;;;;5072082;28;20618;-87
2022/03/19 09:36:50;;;;;;;8.30;1.83;;;10.80;99.90;;;;;;5072868;28;20208;-87
2022/03/19 09:39:17;;;;;;;3.83;1.73;;;10.90;99.90;;;;;;5079567;28;20264;-87
2022/03/19 09:41:44;;;;;;;2.57;1.47;;;10.90;99.90;;;;;;5076044;28;20207;-82
2022/03/19 09:44:12;;;;;;;4.33;1.37;;;11.10;99.90;;;;;;5073359;28;20203;-82
2022/03/19 09:46:41;;;;;;;5.07;1.47;;;11.20;99.90;;;;;;5090766;28;20206;-83
2022/03/19 09:49:08;;;;;;;3.90;1.73;;;11.20;99.90;;;;;;5091045;28;20216;-85
2022/03/19 09:51:39;;;;;;;2.63;1.00;;;11.30;99.90;;;;;;5090658;28;20209;-80
2022/03/19 09:54:06;;;;;;;2.33;1.50;;;11.30;99.90;;;;;;5088818;28;20191;-80
2022/03/19 09:56:36;;;;;;;2.10;1.10;;;11.30;99.90;;;;;;5090513;28;20804;-83
2022/03/19 09:59:02;;;;;;;5.53;1.57;;;11.30;99.90;;;;;;5090027;28;20607;-84
2022/03/19 10:01:33;;;;;;;4.03;1.27;;;11.40;99.90;;;;;;5089845;28;20665;-82
2022/03/19 10:04:03;;;;;;;2.70;0.80;;;11.50;99.90;;;;;;5090735;28;20294;-79
2022/03/19 10:09:19;;;;;;;3.97;1.50;;;11.60;99.90;;;;;;5086576;28;20198;-84
2022/03/19 10:11:49;;;;;;;3.43;1.47;;;11.60;99.90;;;;;;5086239;28;20201;-84
2022/03/19 10:14:25;;;;;;;7.13;2.00;;;11.80;99.90;;;;;;5085958;28;20608;-83
2022/03/19 10:16:55;;;;;;;3.53;1.30;;;11.80;99.90;;;;;;5086046;28;20248;-84
2022/03/19 10:19:23;;;;;;;3.83;1.60;;;12.00;99.90;;;;;;5086023;28;20248;-85
2022/03/19 10:21:49;;;;;;;3.90;1.30;;;12.10;99.90;;;;;;5086028;28;20230;-84
2022/03/19 10:24:25;;;;;;;2.47;1.40;;;12.30;99.90;;;;;;5086217;28;20242;-84
2022/03/19 10:26:52;;;;;;;4.17;1.17;;;12.50;99.90;;;;;;5069117;28;20313;-85
2022/03/19 10:29:27;;;;;;;2.57;1.23;;;12.80;99.90;;;;;;5065602;28;20234;-84
2022/03/19 10:32:00;;;;;;;6.87;2.00;;;13.00;99.90;;;;;;5065851;28;20230;-85
2022/03/19 10:34:29;;;;;;;4.90;1.73;;;13.00;98.80;;;;;;5066087;28;20223;-84
2022/03/19 10:36:56;;;;;;;3.83;1.70;;;12.90;98.60;;;;;;5066670;28;20239;-84
2022/03/19 10:39:26;;;;;;;6.67;1.57;;;12.90;98.50;;;;;;5074249;28;20996;-84
2022/03/19 10:41:54;;;;;;;3.13;1.30;;;12.90;98.20;;;;;;5070762;28;20203;-84
2022/03/19 10:44:23;;;;;;;13.23;2.47;;;12.90;98.40;;;;;;5065746;28;20217;-77
2022/03/19 10:46:53;;;;;;;4.43;1.97;;;12.80;97.90;;;;;;5066468;28;20235;-83
2022/03/19 10:49:21;;;;;;;2.93;1.57;;;12.90;98.10;;;;;;5066882;28;20239;-84
2022/03/19 10:51:51;;;;;;;2.47;1.57;;;13.10;99.20;;;;;;5067871;28;20204;-84
2022/03/19 10:54:18;;;;;;;8.83;2.57;;;13.10;98.70;;;;;;5066360;28;20203;-84
2022/03/19 10:56:47;;;;;;;3.87;1.47;;;13.00;98.10;;;;;;5070199;28;20199;-84
2022/03/19 10:59:14;;;;;;;2.00;1.80;;;13.00;97.80;;;;;;5085954;28;20713;-84
2022/03/19 11:01:41;;;;;;;5.57;1.60;;;12.80;97.30;;;;;;5086055;28;20637;-84
2022/03/19 11:04:09;;;;;;;2.50;1.40;;;12.70;97.50;;;;;;5085737;28;20767;-83
2022/03/19 11:06:38;;;;;;;3.50;1.83;;;12.50;97.50;;;;;;5085738;28;20216;-84
2022/03/19 11:09:09;;;;;;;2.63;1.80;;;12.40;97.70;;;;;;5085723;28;20560;-84
2022/03/19 11:11:42;;;;;;;6.03;2.13;;;12.40;98.10;;;;;;5085853;28;20195;-84
2022/03/19 11:14:11;;;;;;;2.83;1.70;;;12.40;97.90;;;;;;5085589;28;20195;-84
2022/03/19 11:16:38;;;;;;;8.90;2.13;;;12.40;98.00;;;;;;5086310;28;20644;-84
2022/03/19 11:19:05;;;;;;;5.10;1.97;;;12.40;97.90;;;;;;5085951;28;20230;-84
2022/03/19 11:21:33;;;;;;;4.43;1.70;;;12.30;97.70;;;;;;5086077;28;20210;-84
2022/03/19 11:24:08;;;;;;;3.83;1.83;;;12.40;97.70;;;;;;5073808;28;20649;-84
2022/03/19 11:26:36;;;;;;;2.43;1.87;;;12.60;97.80;;;;;;5085617;28;20195;-83
2022/03/19 11:29:05;;;;;;;3.97;1.70;;;12.60;97.30;;;;;;5085586;28;20676;-85
2022/03/19 11:31:33;;;;;;;2.77;2.00;;;12.70;97.20;;;;;;5085285;28;20292;-84
2022/03/19 11:34:13;;;;;;;2.10;1.87;;;12.80;97.30;;;;;;5085315;28;20202;-85
2022/03/19 11:36:54;;;;;;;4.97;1.97;;;12.90;97.10;;;;;;5085406;28;20259;-84
2022/03/19 11:39:22;;;;;;;2.97;1.77;;;13.00;97.00;;;;;;5079164;28;20284;-83
2022/03/19 11:41:50;;;;;;;4.80;2.23;;;13.10;96.80;;;;;;5072796;28;20292;-83
2022/03/19 11:44:18;;;;;;;12.80;2.87;;;13.20;96.50;;;;;;5061720;28;20425;-84
2022/03/19 11:46:59;;;;;;;4.60;1.90;;;12.90;96.50;;;;;;5062452;28;20302;-84
2022/03/19 11:49:49;;;;;;;3.23;2.00;;;12.90;96.70;;;;;;5062019;28;20737;-84
2022/03/19 11:52:39;;;;;;;4.67;2.30;;;12.70;96.80;;;;;;5063507;28;20211;-83
2022/03/19 11:55:10;;;;;;;4.23;2.00;;;12.70;97.00;;;;;;5080102;28;20735;-81
2022/03/19 11:57:56;;;;;;;4.60;2.53;;;12.90;97.30;;;;;;5081912;28;20213;-81
2022/03/19 12:00:25;;;;;;;3.73;1.93;;;13.30;97.40;;;;;;5081259;28;20238;-81
2022/03/19 12:03:06;;;;;;;3.77;1.80;;;13.80;97.30;;;;;;5082857;28;20293;-82
2022/03/19 12:05:34;;;;;;;2.30;1.70;;;13.90;96.00;;;;;;5084708;28;20203;-83
2022/03/19 12:08:13;;;;;;;3.93;2.10;;;13.90;96.00;;;;;;5084095;28;20198;-78
2022/03/19 12:11:01;;;;;;;4.83;1.90;;;14.00;96.40;;;;;;5084710;28;20704;-82
2022/03/19 12:13:43;;;;;;;2.23;1.80;;;14.20;96.30;;;;;;5081306;28;20693;-82
2022/03/19 12:16:12;;;;;;;3.03;2.27;;;14.50;96.10;;;;;;5078553;28;20192;-81
2022/03/19 12:18:47;;;;;;;2.50;1.83;;;14.60;95.30;;;;;;5078472;28;20199;-81
2022/03/19 12:21:21;;;;;;;6.00;2.33;;;14.80;95.40;;;;;;5072724;28;20257;-81
2022/03/19 12:24:31;;;;;;;3.77;2.13;;;14.80;94.80;;;;;;5084931;28;20245;-80
2022/03/19 12:26:59;;;;;;;4.37;2.40;;;15.10;95.30;;;;;;5016000;28;20219;-81
2022/03/19 12:29:30;;;;;;;4.07;3.10;;;15.30;95.20;;;;;;5058076;28;20261;-81
2022/03/19 12:31:57;;;;;;;6.67;3.17;;;15.30;94.70;;;;;;5067301;28;20740;-81
2022/03/19 12:34:25;;;;;;;5.30;2.90;;;15.30;94.80;;;;;;5083266;28;20202;-81
2022/03/19 12:36:57;;;;;;;3.23;2.50;;;15.40;94.70;;;;;;5087882;28;20211;-81
2022/03/19 12:39:24;;;;;;;4.50;2.70;;;15.40;94.40;;;;;;5087725;28;20249;-81
2022/03/19 12:41:51;;;;;;;4.67;3.07;;;15.30;94.50;;;;;;5088185;28;20226;-81
2022/03/19 12:44:23;;;;;;;13.27;4.03;;;15.30;94.70;;;;;;5091124;28;20266;-81
2022/03/19 12:46:56;;;;;;;5.27;3.27;;;15.00;94.90;;;;;;5097888;28;20248;-80
2022/03/19 12:49:23;;;;;;;4.40;3.33;;;15.20;95.10;;;;;;5088136;28;20210;-80
2022/03/19 12:51:50;;;;;;;4.13;3.13;;;15.20;95.00;;;;;;5097545;28;20210;-81
2022/03/19 12:54:19;;;;;;;3.57;3.20;;;15.20;94.80;;;;;;5071312;28;20199;-80
2022/03/19 12:56:46;;;;;;;4.27;3.50;;;15.00;94.40;;;;;;5067694;28;20211;-80
2022/03/19 12:59:18;;;;;;;6.93;3.90;;;14.80;94.70;;;;;;5069901;28;20239;-80
2022/03/19 13:01:46;;;;;;;5.53;3.97;;;14.60;95.20;;;;;;5067639;28;20207;-80
2022/03/19 13:04:20;;;;;;;4.27;3.60;;;14.30;95.40;;;;;;5067377;28;20672;-81
2022/03/19 13:06:47;;;;;;;6.83;4.40;;;14.10;95.70;;;;;;5068983;28;20200;-81
2022/03/19 13:09:13;;;;;;;8.90;4.80;;;13.90;95.70;;;;;;5071317;28;20211;-80
2022/03/19 13:11:45;;;;;;;5.83;4.53;;;13.70;96.00;;;;;;5071344;28;20215;-81
2022/03/19 13:14:13;;;;;;;8.10;5.60;;;13.60;96.10;;;;;;5075918;28;20252;-82